sensor_id;sensor_type;location;lat;lon;timestamp;P1;durP1;ratioP1;P2;durP2;ratioP2
69081;SDS011;56184;51.986;5.760;2022-10-30T00:02:01;28.00;;;6.75;;
69081;SDS011;56184;51.986;5.760;2022-10-30T00:04:26;15.65;;;6.35;;
69081;SDS011;56184;51.986;5.760;2022-10-30T00:06:52;23.45;;;6.38;;
69081;SDS011;56184;51.986;5.760;2022-10-30T00:09:17;20.60;;;6.32;;
69081;SDS011;56184;51.986;5.760;2022-10-30T00:11:45;15.48;;;6.10;;
69081;SDS011;56184;51.986;5.760;2022-10-30T00:14:10;20.23;;;6.50;;
69081;SDS011;56184;51.986;5.760;2022-10-30T00:16:37;24.50;;;6.90;;
69081;SDS011;56184;51.986;5.760;2022-10-30T00:19:03;18.85;;;6.68;;
69081;SDS011;56184;51.986;5.760;2022-10-30T00:21:28;14.13;;;6.53;;
69081;SDS011;56184;51.986;5.760;2022-10-30T00:23:54;26.38;;;7.35;;
69081;SDS011;56184;51.986;5.760;2022-10-30T00:26:20;21.92;;;6.90;;
69081;SDS011;56184;51.986;5.760;2022-10-30T00:28:50;19.08;;;7.03;;
69081;SDS011;56184;51.986;5.760;2022-10-30T00:31:17;25.90;;;7.43;;
69081;SDS011;56184;51.986;5.760;2022-10-30T00:33:47;16.58;;;6.18;;
69081;SDS011;56184;51.986;5.760;2022-10-30T00:36:16;18.90;;;6.77;;
69081;SDS011;56184;51.986;5.760;2022-10-30T00:38:42;17.20;;;7.05;;
69081;SDS011;56184;51.986;5.760;2022-10-30T00:41:12;13.50;;;6.18;;
69081;SDS011;56184;51.986;5.760;2022-10-30T00:43:43;24.40;;;6.90;;
69081;SDS011;56184;51.986;5.760;2022-10-30T00:51:36;21.90;;;6.53;;
69081;SDS011;56184;51.986;5.760;2022-10-30T00:54:05;17.55;;;6.95;;
69081;SDS011;56184;51.986;5.760;2022-10-30T00:56:32;18.63;;;7.38;;
69081;SDS011;56184;51.986;5.760;2022-10-30T00:59:01;21.95;;;7.03;;
69081;SDS011;56184;51.986;5.760;2022-10-30T01:01:31;22.58;;;7.28;;
69081;SDS011;56184;51.986;5.760;2022-10-30T01:03:59;18.58;;;6.35;;
69081;SDS011;56184;51.986;5.760;2022-10-30T01:06:27;14.50;;;6.88;;
69081;SDS011;56184;51.986;5.760;2022-10-30T01:08:54;19.20;;;7.93;;
69081;SDS011;56184;51.986;5.760;2022-10-30T01:11:20;18.35;;;7.45;;
69081;SDS011;56184;51.986;5.760;2022-10-30T01:13:46;18.25;;;6.75;;
69081;SDS011;56184;51.986;5.760;2022-10-30T01:24:42;20.23;;;7.20;;
69081;SDS011;56184;51.986;5.760;2022-10-30T01:27:36;17.42;;;7.07;;
69081;SDS011;56184;51.986;5.760;2022-10-30T01:32:44;17.73;;;7.03;;
69081;SDS011;56184;51.986;5.760;2022-10-30T01:35:19;15.00;;;7.13;;
69081;SDS011;56184;51.986;5.760;2022-10-30T01:41:11;24.70;;;7.93;;
69081;SDS011;56184;51.986;5.760;2022-10-30T01:43:36;25.23;;;7.68;;
69081;SDS011;56184;51.986;5.760;2022-10-30T01:46:14;16.48;;;7.13;;
69081;SDS011;56184;51.986;5.760;2022-10-30T01:48:49;18.38;;;7.13;;
69081;SDS011;56184;51.986;5.760;2022-10-30T01:51:26;19.27;;;6.75;;
69081;SDS011;56184;51.986;5.760;2022-10-30T02:00:04;21.65;;;7.22;;
69081;SDS011;56184;51.986;5.760;2022-10-30T02:02:32;15.75;;;6.55;;
69081;SDS011;56184;51.986;5.760;2022-10-30T02:04:59;21.05;;;6.85;;
69081;SDS011;56184;51.986;5.760;2022-10-30T02:07:25;21.83;;;7.32;;
69081;SDS011;56184;51.986;5.760;2022-10-30T02:09:51;24.40;;;6.78;;
69081;SDS011;56184;51.986;5.760;2022-10-30T02:12:18;20.70;;;6.90;;
69081;SDS011;56184;51.986;5.760;2022-10-30T02:14:46;16.10;;;6.75;;
69081;SDS011;56184;51.986;5.760;2022-10-30T02:17:14;23.08;;;7.65;;
69081;SDS011;56184;51.986;5.760;2022-10-30T02:19:40;23.33;;;7.28;;
69081;SDS011;56184;51.986;5.760;2022-10-30T02:22:06;18.95;;;7.22;;
69081;SDS011;56184;51.986;5.760;2022-10-30T02:24:32;25.13;;;6.72;;
69081;SDS011;56184;51.986;5.760;2022-10-30T02:26:58;20.20;;;6.90;;
69081;SDS011;56184;51.986;5.760;2022-10-30T02:29:23;16.60;;;7.38;;
69081;SDS011;56184;51.986;5.760;2022-10-30T02:31:49;23.23;;;7.47;;
69081;SDS011;56184;51.986;5.760;2022-10-30T02:34:14;15.73;;;6.65;;
69081;SDS011;56184;51.986;5.760;2022-10-30T02:36:40;21.85;;;7.28;;
69081;SDS011;56184;51.986;5.760;2022-10-30T02:39:06;20.25;;;7.20;;
69081;SDS011;56184;51.986;5.760;2022-10-30T02:41:32;17.52;;;6.70;;
69081;SDS011;56184;51.986;5.760;2022-10-30T02:43:58;22.73;;;7.10;;
69081;SDS011;56184;51.986;5.760;2022-10-30T02:46:23;22.33;;;7.03;;
69081;SDS011;56184;51.986;5.760;2022-10-30T02:48:49;23.45;;;7.30;;
69081;SDS011;56184;51.986;5.760;2022-10-30T02:51:15;15.70;;;6.53;;
69081;SDS011;56184;51.986;5.760;2022-10-30T02:53:40;14.38;;;7.38;;
69081;SDS011;56184;51.986;5.760;2022-10-30T02:56:07;17.08;;;6.70;;
69081;SDS011;56184;51.986;5.760;2022-10-30T02:58:34;23.13;;;7.10;;
69081;SDS011;56184;51.986;5.760;2022-10-30T03:01:04;16.30;;;6.47;;
69081;SDS011;56184;51.986;5.760;2022-10-30T03:03:34;20.40;;;6.57;;
69081;SDS011;56184;51.986;5.760;2022-10-30T03:06:00;21.15;;;6.88;;
69081;SDS011;56184;51.986;5.760;2022-10-30T03:08:30;18.52;;;6.93;;
69081;SDS011;56184;51.986;5.760;2022-10-30T03:11:00;20.05;;;7.82;;
69081;SDS011;56184;51.986;5.760;2022-10-30T03:13:31;24.38;;;6.95;;
69081;SDS011;56184;51.986;5.760;2022-10-30T03:15:58;19.50;;;7.05;;
69081;SDS011;56184;51.986;5.760;2022-10-30T03:18:26;21.60;;;7.10;;
69081;SDS011;56184;51.986;5.760;2022-10-30T03:21:01;23.45;;;7.88;;
69081;SDS011;56184;51.986;5.760;2022-10-30T03:23:29;18.70;;;7.40;;
69081;SDS011;56184;51.986;5.760;2022-10-30T03:25:55;12.43;;;6.97;;
69081;SDS011;56184;51.986;5.760;2022-10-30T03:28:22;15.15;;;6.80;;
69081;SDS011;56184;51.986;5.760;2022-10-30T03:30:50;23.52;;;7.53;;
69081;SDS011;56184;51.986;5.760;2022-10-30T03:33:16;17.15;;;7.20;;
69081;SDS011;56184;51.986;5.760;2022-10-30T03:35:43;14.40;;;6.80;;
69081;SDS011;56184;51.986;5.760;2022-10-30T03:38:09;19.45;;;7.47;;
69081;SDS011;56184;51.986;5.760;2022-10-30T03:40:37;21.67;;;7.30;;
69081;SDS011;56184;51.986;5.760;2022-10-30T03:43:04;24.55;;;8.20;;
69081;SDS011;56184;51.986;5.760;2022-10-30T03:45:30;20.30;;;7.22;;
69081;SDS011;56184;51.986;5.760;2022-10-30T03:47:58;19.40;;;7.30;;
69081;SDS011;56184;51.986;5.760;2022-10-30T03:50:24;25.08;;;8.30;;
69081;SDS011;56184;51.986;5.760;2022-10-30T03:52:52;18.85;;;7.63;;
69081;SDS011;56184;51.986;5.760;2022-10-30T03:55:18;16.10;;;7.05;;
69081;SDS011;56184;51.986;5.760;2022-10-30T03:57:43;17.20;;;7.22;;
69081;SDS011;56184;51.986;5.760;2022-10-30T04:00:09;22.17;;;7.70;;
69081;SDS011;56184;51.986;5.760;2022-10-30T04:02:35;21.58;;;8.50;;
69081;SDS011;56184;51.986;5.760;2022-10-30T04:05:01;17.40;;;7.80;;
69081;SDS011;56184;51.986;5.760;2022-10-30T04:07:27;20.73;;;8.25;;
69081;SDS011;56184;51.986;5.760;2022-10-30T04:09:53;28.35;;;8.52;;
69081;SDS011;56184;51.986;5.760;2022-10-30T04:12:19;22.40;;;8.57;;
69081;SDS011;56184;51.986;5.760;2022-10-30T04:14:45;21.98;;;9.07;;
69081;SDS011;56184;51.986;5.760;2022-10-30T04:17:10;18.48;;;7.57;;
69081;SDS011;56184;51.986;5.760;2022-10-30T04:19:36;19.45;;;7.82;;
69081;SDS011;56184;51.986;5.760;2022-10-30T04:22:02;23.85;;;8.02;;
69081;SDS011;56184;51.986;5.760;2022-10-30T04:24:27;24.48;;;8.20;;
69081;SDS011;56184;51.986;5.760;2022-10-30T04:26:53;23.42;;;8.57;;
69081;SDS011;56184;51.986;5.760;2022-10-30T04:29:18;21.58;;;8.77;;
69081;SDS011;56184;51.986;5.760;2022-10-30T04:31:44;18.52;;;8.40;;
69081;SDS011;56184;51.986;5.760;2022-10-30T04:34:09;25.60;;;9.27;;
69081;SDS011;56184;51.986;5.760;2022-10-30T04:36:36;20.98;;;7.18;;
69081;SDS011;56184;51.986;5.760;2022-10-30T04:39:02;20.30;;;7.18;;
69081;SDS011;56184;51.986;5.760;2022-10-30T04:41:28;26.17;;;7.22;;
69081;SDS011;56184;51.986;5.760;2022-10-30T04:43:53;17.48;;;7.65;;
69081;SDS011;56184;51.986;5.760;2022-10-30T04:46:19;21.70;;;8.30;;
69081;SDS011;56184;51.986;5.760;2022-10-30T04:48:45;15.93;;;7.15;;
69081;SDS011;56184;51.986;5.760;2022-10-30T04:51:10;31.50;;;8.65;;
69081;SDS011;56184;51.986;5.760;2022-10-30T04:53:37;22.95;;;8.25;;
69081;SDS011;56184;51.986;5.760;2022-10-30T04:56:03;21.77;;;8.18;;
69081;SDS011;56184;51.986;5.760;2022-10-30T04:58:29;16.10;;;7.30;;
69081;SDS011;56184;51.986;5.760;2022-10-30T05:00:59;25.25;;;7.65;;
69081;SDS011;56184;51.986;5.760;2022-10-30T05:03:26;24.75;;;7.90;;
69081;SDS011;56184;51.986;5.760;2022-10-30T05:05:56;23.10;;;7.68;;
69081;SDS011;56184;51.986;5.760;2022-10-30T05:08:26;16.40;;;6.90;;
69081;SDS011;56184;51.986;5.760;2022-10-30T05:10:52;21.42;;;7.70;;
69081;SDS011;56184;51.986;5.760;2022-10-30T05:13:18;16.50;;;6.75;;
69081;SDS011;56184;51.986;5.760;2022-10-30T05:15:44;16.17;;;7.68;;
69081;SDS011;56184;51.986;5.760;2022-10-30T05:18:10;15.60;;;7.25;;
69081;SDS011;56184;51.986;5.760;2022-10-30T05:20:35;27.02;;;7.25;;
69081;SDS011;56184;51.986;5.760;2022-10-30T05:23:01;17.60;;;7.40;;
69081;SDS011;56184;51.986;5.760;2022-10-30T05:25:26;15.85;;;7.22;;
69081;SDS011;56184;51.986;5.760;2022-10-30T05:27:59;22.50;;;8.05;;
69081;SDS011;56184;51.986;5.760;2022-10-30T05:30:29;19.80;;;7.82;;
69081;SDS011;56184;51.986;5.760;2022-10-30T05:33:00;21.73;;;7.72;;
69081;SDS011;56184;51.986;5.760;2022-10-30T05:35:27;17.17;;;8.88;;
69081;SDS011;56184;51.986;5.760;2022-10-30T05:37:53;18.10;;;7.72;;
69081;SDS011;56184;51.986;5.760;2022-10-30T05:40:19;15.35;;;8.13;;
69081;SDS011;56184;51.986;5.760;2022-10-30T05:42:47;22.08;;;8.13;;
69081;SDS011;56184;51.986;5.760;2022-10-30T05:45:13;18.42;;;7.63;;
69081;SDS011;56184;51.986;5.760;2022-10-30T05:47:39;19.15;;;7.97;;
69081;SDS011;56184;51.986;5.760;2022-10-30T05:50:05;17.67;;;6.82;;
69081;SDS011;56184;51.986;5.760;2022-10-30T05:52:31;19.23;;;7.10;;
69081;SDS011;56184;51.986;5.760;2022-10-30T05:54:57;23.23;;;7.38;;
69081;SDS011;56184;51.986;5.760;2022-10-30T05:57:23;21.65;;;7.32;;
69081;SDS011;56184;51.986;5.760;2022-10-30T05:59:49;16.27;;;6.57;;
69081;SDS011;56184;51.986;5.760;2022-10-30T06:02:17;10.68;;;6.20;;
69081;SDS011;56184;51.986;5.760;2022-10-30T06:04:43;19.40;;;7.25;;
69081;SDS011;56184;51.986;5.760;2022-10-30T06:07:09;16.85;;;6.90;;
69081;SDS011;56184;51.986;5.760;2022-10-30T06:09:35;23.63;;;7.15;;
69081;SDS011;56184;51.986;5.760;2022-10-30T06:12:00;21.50;;;6.97;;
69081;SDS011;56184;51.986;5.760;2022-10-30T06:14:26;18.75;;;7.07;;
69081;SDS011;56184;51.986;5.760;2022-10-30T06:16:51;14.98;;;6.40;;
69081;SDS011;56184;51.986;5.760;2022-10-30T06:19:17;17.45;;;7.35;;
69081;SDS011;56184;51.986;5.760;2022-10-30T06:21:43;18.40;;;6.70;;
69081;SDS011;56184;51.986;5.760;2022-10-30T06:24:08;17.15;;;6.68;;
69081;SDS011;56184;51.986;5.760;2022-10-30T06:26:34;20.35;;;7.28;;
69081;SDS011;56184;51.986;5.760;2022-10-30T06:28:59;20.17;;;6.97;;
69081;SDS011;56184;51.986;5.760;2022-10-30T06:31:25;14.77;;;7.15;;
69081;SDS011;56184;51.986;5.760;2022-10-30T06:33:51;16.02;;;6.47;;
69081;SDS011;56184;51.986;5.760;2022-10-30T06:36:16;15.73;;;6.55;;
69081;SDS011;56184;51.986;5.760;2022-10-30T06:38:42;24.65;;;8.65;;
69081;SDS011;56184;51.986;5.760;2022-10-30T06:41:08;15.65;;;7.15;;
69081;SDS011;56184;51.986;5.760;2022-10-30T06:43:34;17.60;;;7.20;;
69081;SDS011;56184;51.986;5.760;2022-10-30T06:45:59;17.13;;;7.43;;
69081;SDS011;56184;51.986;5.760;2022-10-30T06:48:25;17.25;;;7.25;;
69081;SDS011;56184;51.986;5.760;2022-10-30T06:50:54;19.30;;;7.22;;
69081;SDS011;56184;51.986;5.760;2022-10-30T06:53:21;16.15;;;7.15;;
69081;SDS011;56184;51.986;5.760;2022-10-30T06:56:00;19.35;;;8.30;;
69081;SDS011;56184;51.986;5.760;2022-10-30T06:58:26;18.88;;;7.50;;
69081;SDS011;56184;51.986;5.760;2022-10-30T07:00:54;14.13;;;7.03;;
69081;SDS011;56184;51.986;5.760;2022-10-30T07:03:23;16.23;;;7.90;;
69081;SDS011;56184;51.986;5.760;2022-10-30T07:05:48;23.45;;;7.90;;
69081;SDS011;56184;51.986;5.760;2022-10-30T07:08:16;17.35;;;7.40;;
69081;SDS011;56184;51.986;5.760;2022-10-30T07:10:41;16.90;;;7.63;;
69081;SDS011;56184;51.986;5.760;2022-10-30T07:13:07;16.63;;;7.97;;
69081;SDS011;56184;51.986;5.760;2022-10-30T07:15:33;21.42;;;8.10;;
69081;SDS011;56184;51.986;5.760;2022-10-30T07:18:00;14.70;;;7.82;;
69081;SDS011;56184;51.986;5.760;2022-10-30T07:20:27;16.70;;;6.65;;
69081;SDS011;56184;51.986;5.760;2022-10-30T07:22:54;20.98;;;7.93;;
69081;SDS011;56184;51.986;5.760;2022-10-30T07:25:20;21.65;;;8.82;;
69081;SDS011;56184;51.986;5.760;2022-10-30T07:27:47;21.02;;;8.20;;
69081;SDS011;56184;51.986;5.760;2022-10-30T07:30:17;16.50;;;10.43;;
69081;SDS011;56184;51.986;5.760;2022-10-30T07:32:44;21.17;;;6.93;;
69081;SDS011;56184;51.986;5.760;2022-10-30T07:35:11;15.15;;;6.65;;
69081;SDS011;56184;51.986;5.760;2022-10-30T07:37:38;19.27;;;6.82;;
69081;SDS011;56184;51.986;5.760;2022-10-30T07:40:04;11.85;;;7.13;;
69081;SDS011;56184;51.986;5.760;2022-10-30T07:42:31;15.32;;;8.25;;
69081;SDS011;56184;51.986;5.760;2022-10-30T07:44:57;23.33;;;8.93;;
69081;SDS011;56184;51.986;5.760;2022-10-30T07:47:22;19.88;;;8.63;;
69081;SDS011;56184;51.986;5.760;2022-10-30T07:49:48;19.20;;;8.80;;
69081;SDS011;56184;51.986;5.760;2022-10-30T07:52:13;20.80;;;9.15;;
69081;SDS011;56184;51.986;5.760;2022-10-30T07:54:39;24.52;;;8.98;;
69081;SDS011;56184;51.986;5.760;2022-10-30T07:57:04;17.63;;;8.20;;
69081;SDS011;56184;51.986;5.760;2022-10-30T07:59:30;22.48;;;9.77;;
69081;SDS011;56184;51.986;5.760;2022-10-30T08:01:55;17.83;;;9.40;;
69081;SDS011;56184;51.986;5.760;2022-10-30T08:04:21;17.58;;;8.80;;
69081;SDS011;56184;51.986;5.760;2022-10-30T08:06:47;22.88;;;8.95;;
69081;SDS011;56184;51.986;5.760;2022-10-30T08:09:12;18.58;;;9.02;;
69081;SDS011;56184;51.986;5.760;2022-10-30T08:11:38;22.80;;;9.05;;
69081;SDS011;56184;51.986;5.760;2022-10-30T08:14:03;26.33;;;9.77;;
69081;SDS011;56184;51.986;5.760;2022-10-30T08:16:29;15.45;;;8.90;;
69081;SDS011;56184;51.986;5.760;2022-10-30T08:18:54;21.70;;;8.80;;
69081;SDS011;56184;51.986;5.760;2022-10-30T08:21:20;25.60;;;9.93;;
69081;SDS011;56184;51.986;5.760;2022-10-30T08:23:46;23.27;;;10.15;;
69081;SDS011;56184;51.986;5.760;2022-10-30T08:26:12;29.15;;;10.50;;
69081;SDS011;56184;51.986;5.760;2022-10-30T08:28:38;20.80;;;9.70;;
69081;SDS011;56184;51.986;5.760;2022-10-30T08:31:03;21.88;;;9.82;;
69081;SDS011;56184;51.986;5.760;2022-10-30T08:33:30;21.63;;;10.45;;
69081;SDS011;56184;51.986;5.760;2022-10-30T08:35:56;26.92;;;10.80;;
69081;SDS011;56184;51.986;5.760;2022-10-30T08:38:23;29.00;;;10.60;;
69081;SDS011;56184;51.986;5.760;2022-10-30T08:40:51;22.20;;;10.57;;
69081;SDS011;56184;51.986;5.760;2022-10-30T08:43:16;25.20;;;11.57;;
69081;SDS011;56184;51.986;5.760;2022-10-30T08:45:42;30.85;;;11.40;;
69081;SDS011;56184;51.986;5.760;2022-10-30T08:48:11;24.23;;;10.68;;
69081;SDS011;56184;51.986;5.760;2022-10-30T08:50:38;19.60;;;9.93;;
69081;SDS011;56184;51.986;5.760;2022-10-30T08:53:05;20.35;;;10.77;;
69081;SDS011;56184;51.986;5.760;2022-10-30T08:55:33;22.63;;;10.73;;
69081;SDS011;56184;51.986;5.760;2022-10-30T08:57:59;26.88;;;11.18;;
69081;SDS011;56184;51.986;5.760;2022-10-30T09:00:25;21.65;;;10.35;;
69081;SDS011;56184;51.986;5.760;2022-10-30T09:02:51;27.45;;;10.57;;
69081;SDS011;56184;51.986;5.760;2022-10-30T09:05:17;27.13;;;10.38;;
69081;SDS011;56184;51.986;5.760;2022-10-30T09:07:43;22.23;;;10.65;;
69081;SDS011;56184;51.986;5.760;2022-10-30T09:10:09;19.75;;;10.32;;
69081;SDS011;56184;51.986;5.760;2022-10-30T09:12:35;28.67;;;10.48;;
69081;SDS011;56184;51.986;5.760;2022-10-30T09:15:07;24.00;;;9.90;;
69081;SDS011;56184;51.986;5.760;2022-10-30T09:17:33;23.15;;;10.60;;
69081;SDS011;56184;51.986;5.760;2022-10-30T09:19:58;27.10;;;9.90;;
69081;SDS011;56184;51.986;5.760;2022-10-30T09:22:24;26.38;;;10.57;;
69081;SDS011;56184;51.986;5.760;2022-10-30T09:24:49;21.58;;;9.98;;
69081;SDS011;56184;51.986;5.760;2022-10-30T09:27:15;24.00;;;9.88;;
69081;SDS011;56184;51.986;5.760;2022-10-30T09:29:40;19.52;;;9.43;;
69081;SDS011;56184;51.986;5.760;2022-10-30T09:32:06;24.90;;;11.02;;
69081;SDS011;56184;51.986;5.760;2022-10-30T09:34:34;20.17;;;9.93;;
69081;SDS011;56184;51.986;5.760;2022-10-30T09:37:02;22.58;;;10.15;;
69081;SDS011;56184;51.986;5.760;2022-10-30T09:39:28;20.02;;;10.07;;
69081;SDS011;56184;51.986;5.760;2022-10-30T09:42:00;21.38;;;9.35;;
69081;SDS011;56184;51.986;5.760;2022-10-30T09:52:29;17.35;;;9.38;;
69081;SDS011;56184;51.986;5.760;2022-10-30T09:55:14;23.27;;;9.60;;
69081;SDS011;56184;51.986;5.760;2022-10-30T10:00:22;24.23;;;10.18;;
69081;SDS011;56184;51.986;5.760;2022-10-30T10:11:23;22.35;;;9.88;;
69081;SDS011;56184;51.986;5.760;2022-10-30T10:13:59;17.95;;;8.65;;
69081;SDS011;56184;51.986;5.760;2022-10-30T10:16:33;21.33;;;9.65;;
69081;SDS011;56184;51.986;5.760;2022-10-30T10:19:06;21.55;;;9.75;;
69081;SDS011;56184;51.986;5.760;2022-10-30T10:21:45;17.25;;;8.57;;
69081;SDS011;56184;51.986;5.760;2022-10-30T10:24:30;18.08;;;9.10;;
69081;SDS011;56184;51.986;5.760;2022-10-30T10:30:25;25.20;;;10.18;;
69081;SDS011;56184;51.986;5.760;2022-10-30T10:33:15;24.10;;;10.32;;
69081;SDS011;56184;51.986;5.760;2022-10-30T10:38:40;32.55;;;10.80;;
69081;SDS011;56184;51.986;5.760;2022-10-30T10:41:19;19.88;;;9.98;;
69081;SDS011;56184;51.986;5.760;2022-10-30T10:52:38;19.23;;;9.05;;
69081;SDS011;56184;51.986;5.760;2022-10-30T10:55:20;20.15;;;8.60;;
69081;SDS011;56184;51.986;5.760;2022-10-30T10:57:49;30.17;;;9.85;;
69081;SDS011;56184;51.986;5.760;2022-10-30T11:00:17;22.60;;;10.15;;
69081;SDS011;56184;51.986;5.760;2022-10-30T11:02:50;22.85;;;9.25;;
69081;SDS011;56184;51.986;5.760;2022-10-30T11:08:20;23.10;;;10.27;;
69081;SDS011;56184;51.986;5.760;2022-10-30T11:10:57;19.98;;;9.50;;
69081;SDS011;56184;51.986;5.760;2022-10-30T11:13:26;18.92;;;9.35;;
69081;SDS011;56184;51.986;5.760;2022-10-30T11:18:28;21.88;;;7.97;;
69081;SDS011;56184;51.986;5.760;2022-10-30T11:21:04;21.63;;;9.05;;
69081;SDS011;56184;51.986;5.760;2022-10-30T11:23:41;16.70;;;8.40;;
69081;SDS011;56184;51.986;5.760;2022-10-30T11:28:53;21.55;;;8.77;;
69081;SDS011;56184;51.986;5.760;2022-10-30T11:31:27;23.42;;;7.32;;
69081;SDS011;56184;51.986;5.760;2022-10-30T11:34:22;22.42;;;8.15;;
69081;SDS011;56184;51.986;5.760;2022-10-30T11:36:49;23.73;;;8.52;;
69081;SDS011;56184;51.986;5.760;2022-10-30T11:39:34;16.73;;;7.45;;
69081;SDS011;56184;51.986;5.760;2022-10-30T11:44:31;21.42;;;7.85;;
69081;SDS011;56184;51.986;5.760;2022-10-30T11:46:59;16.93;;;7.83;;
69081;SDS011;56184;51.986;5.760;2022-10-30T11:49:27;21.10;;;8.20;;
69081;SDS011;56184;51.986;5.760;2022-10-30T11:52:25;21.95;;;8.20;;
69081;SDS011;56184;51.986;5.760;2022-10-30T11:54:52;23.65;;;8.13;;
69081;SDS011;56184;51.986;5.760;2022-10-30T11:57:22;23.35;;;7.88;;
69081;SDS011;56184;51.986;5.760;2022-10-30T11:59:59;23.35;;;8.27;;
69081;SDS011;56184;51.986;5.760;2022-10-30T12:02:28;17.63;;;8.15;;
69081;SDS011;56184;51.986;5.760;2022-10-30T12:05:28;22.30;;;8.18;;
69081;SDS011;56184;51.986;5.760;2022-10-30T12:10:38;20.55;;;8.30;;
69081;SDS011;56184;51.986;5.760;2022-10-30T12:13:05;19.05;;;8.07;;
69081;SDS011;56184;51.986;5.760;2022-10-30T12:15:37;16.13;;;7.47;;
69081;SDS011;56184;51.986;5.760;2022-10-30T12:18:04;26.33;;;8.98;;
69081;SDS011;56184;51.986;5.760;2022-10-30T12:20:32;21.73;;;7.78;;
69081;SDS011;56184;51.986;5.760;2022-10-30T12:23:13;20.65;;;7.15;;
69081;SDS011;56184;51.986;5.760;2022-10-30T12:25:50;22.17;;;7.82;;
69081;SDS011;56184;51.986;5.760;2022-10-30T12:28:19;27.52;;;8.45;;
69081;SDS011;56184;51.986;5.760;2022-10-30T12:33:32;23.33;;;7.90;;
69081;SDS011;56184;51.986;5.760;2022-10-30T12:36:20;30.02;;;8.60;;
69081;SDS011;56184;51.986;5.760;2022-10-30T12:38:50;24.38;;;7.97;;
69081;SDS011;56184;51.986;5.760;2022-10-30T12:49:50;21.02;;;7.22;;
69081;SDS011;56184;51.986;5.760;2022-10-30T12:52:29;22.95;;;8.13;;
69081;SDS011;56184;51.986;5.760;2022-10-30T12:55:18;26.23;;;8.38;;
69081;SDS011;56184;51.986;5.760;2022-10-30T13:00:42;23.23;;;8.00;;
69081;SDS011;56184;51.986;5.760;2022-10-30T13:06:04;19.48;;;7.60;;
69081;SDS011;56184;51.986;5.760;2022-10-30T13:11:10;20.35;;;8.00;;
69081;SDS011;56184;51.986;5.760;2022-10-30T13:13:57;21.27;;;7.93;;
69081;SDS011;56184;51.986;5.760;2022-10-30T13:16:31;17.88;;;8.13;;
69081;SDS011;56184;51.986;5.760;2022-10-30T13:24:04;22.38;;;7.07;;
69081;SDS011;56184;51.986;5.760;2022-10-30T13:29:38;19.67;;;7.00;;
69081;SDS011;56184;51.986;5.760;2022-10-30T13:34:50;21.30;;;8.20;;
69081;SDS011;56184;51.986;5.760;2022-10-30T13:40:19;17.15;;;7.38;;
69081;SDS011;56184;51.986;5.760;2022-10-30T13:43:01;24.10;;;8.70;;
69081;SDS011;56184;51.986;5.760;2022-10-30T13:51:33;20.90;;;8.60;;
69081;SDS011;56184;51.986;5.760;2022-10-30T13:56:38;29.07;;;9.40;;
69081;SDS011;56184;51.986;5.760;2022-10-30T14:01:46;20.90;;;8.63;;
69081;SDS011;56184;51.986;5.760;2022-10-30T14:04:16;22.55;;;8.25;;
69081;SDS011;56184;51.986;5.760;2022-10-30T14:09:29;24.25;;;8.32;;
69081;SDS011;56184;51.986;5.760;2022-10-30T14:15:18;22.35;;;10.23;;
69081;SDS011;56184;51.986;5.760;2022-10-30T14:20:45;28.75;;;9.88;;
69081;SDS011;56184;51.986;5.760;2022-10-30T14:23:19;23.98;;;10.48;;
69081;SDS011;56184;51.986;5.760;2022-10-30T14:28:27;19.77;;;9.35;;
69081;SDS011;56184;51.986;5.760;2022-10-30T14:36:14;25.33;;;8.50;;
69081;SDS011;56184;51.986;5.760;2022-10-30T14:44:39;27.42;;;8.80;;
69081;SDS011;56184;51.986;5.760;2022-10-30T14:56:23;23.80;;;9.30;;
69081;SDS011;56184;51.986;5.760;2022-10-30T15:07:08;20.65;;;9.10;;
69081;SDS011;56184;51.986;5.760;2022-10-30T15:12:27;20.23;;;8.68;;
69081;SDS011;56184;51.986;5.760;2022-10-30T15:15:04;19.25;;;8.60;;
69081;SDS011;56184;51.986;5.760;2022-10-30T15:17:42;22.92;;;9.05;;
69081;SDS011;56184;51.986;5.760;2022-10-30T15:20:18;23.45;;;8.95;;
69081;SDS011;56184;51.986;5.760;2022-10-30T15:22:50;20.92;;;10.13;;
69081;SDS011;56184;51.986;5.760;2022-10-30T15:25:22;24.73;;;9.82;;
69081;SDS011;56184;51.986;5.760;2022-10-30T15:27:57;19.02;;;9.70;;
69081;SDS011;56184;51.986;5.760;2022-10-30T15:30:23;29.13;;;11.32;;
69081;SDS011;56184;51.986;5.760;2022-10-30T15:32:51;23.55;;;10.45;;
69081;SDS011;56184;51.986;5.760;2022-10-30T15:35:18;25.80;;;11.40;;
69081;SDS011;56184;51.986;5.760;2022-10-30T15:40:29;21.92;;;9.68;;
69081;SDS011;56184;51.986;5.760;2022-10-30T15:42:57;29.02;;;10.40;;
69081;SDS011;56184;51.986;5.760;2022-10-30T15:48:24;22.70;;;9.95;;
69081;SDS011;56184;51.986;5.760;2022-10-30T15:50:54;26.58;;;9.85;;
69081;SDS011;56184;51.986;5.760;2022-10-30T15:56:04;26.88;;;10.23;;
69081;SDS011;56184;51.986;5.760;2022-10-30T15:58:31;25.98;;;10.98;;
69081;SDS011;56184;51.986;5.760;2022-10-30T16:01:00;28.08;;;11.98;;
69081;SDS011;56184;51.986;5.760;2022-10-30T16:03:26;21.65;;;11.80;;
69081;SDS011;56184;51.986;5.760;2022-10-30T16:06:06;24.75;;;11.93;;
69081;SDS011;56184;51.986;5.760;2022-10-30T16:08:44;28.67;;;12.27;;
69081;SDS011;56184;51.986;5.760;2022-10-30T16:11:12;25.67;;;14.13;;
69081;SDS011;56184;51.986;5.760;2022-10-30T16:13:38;28.63;;;12.52;;
69081;SDS011;56184;51.986;5.760;2022-10-30T16:16:05;32.72;;;14.77;;
69081;SDS011;56184;51.986;5.760;2022-10-30T16:18:35;35.30;;;14.85;;
69081;SDS011;56184;51.986;5.760;2022-10-30T16:21:03;28.92;;;15.20;;
69081;SDS011;56184;51.986;5.760;2022-10-30T16:23:40;26.13;;;15.80;;
69081;SDS011;56184;51.986;5.760;2022-10-30T16:28:48;30.73;;;12.32;;
69081;SDS011;56184;51.986;5.760;2022-10-30T16:31:16;23.73;;;11.25;;
69081;SDS011;56184;51.986;5.760;2022-10-30T16:33:44;24.38;;;10.32;;
69081;SDS011;56184;51.986;5.760;2022-10-30T16:36:10;27.52;;;10.52;;
69081;SDS011;56184;51.986;5.760;2022-10-30T16:38:40;22.02;;;10.25;;
69081;SDS011;56184;51.986;5.760;2022-10-30T16:41:08;21.05;;;8.90;;
69081;SDS011;56184;51.986;5.760;2022-10-30T16:43:38;23.58;;;9.45;;
69081;SDS011;56184;51.986;5.760;2022-10-30T16:48:45;21.13;;;8.93;;
69081;SDS011;56184;51.986;5.760;2022-10-30T16:51:18;21.77;;;8.85;;
69081;SDS011;56184;51.986;5.760;2022-10-30T16:53:49;33.17;;;9.07;;
69081;SDS011;56184;51.986;5.760;2022-10-30T16:56:26;17.38;;;8.60;;
69081;SDS011;56184;51.986;5.760;2022-10-30T16:58:55;12.25;;;6.97;;
69081;SDS011;56184;51.986;5.760;2022-10-30T17:01:52;24.25;;;8.43;;
69081;SDS011;56184;51.986;5.760;2022-10-30T17:04:21;19.75;;;8.57;;
69081;SDS011;56184;51.986;5.760;2022-10-30T17:06:46;17.50;;;8.27;;
69081;SDS011;56184;51.986;5.760;2022-10-30T17:09:24;19.48;;;8.13;;
69081;SDS011;56184;51.986;5.760;2022-10-30T17:14:46;18.13;;;7.32;;
69081;SDS011;56184;51.986;5.760;2022-10-30T17:19:59;19.17;;;7.38;;
69081;SDS011;56184;51.986;5.760;2022-10-30T17:22:28;19.08;;;7.63;;
69081;SDS011;56184;51.986;5.760;2022-10-30T17:24:54;20.58;;;7.13;;
69081;SDS011;56184;51.986;5.760;2022-10-30T17:27:31;16.73;;;7.13;;
69081;SDS011;56184;51.986;5.760;2022-10-30T17:32:56;21.30;;;7.50;;
69081;SDS011;56184;51.986;5.760;2022-10-30T17:35:22;17.38;;;7.15;;
69081;SDS011;56184;51.986;5.760;2022-10-30T17:37:48;16.40;;;7.13;;
69081;SDS011;56184;51.986;5.760;2022-10-30T17:40:13;15.40;;;7.15;;
69081;SDS011;56184;51.986;5.760;2022-10-30T17:42:39;15.15;;;7.03;;
69081;SDS011;56184;51.986;5.760;2022-10-30T17:45:05;16.30;;;6.30;;
69081;SDS011;56184;51.986;5.760;2022-10-30T17:47:34;17.35;;;7.07;;